createdAt,value
2022-08-27T00:02:31.246Z,99.90
2022-08-27T00:05:37.051Z,99.90
2022-08-27T00:08:40.654Z,99.90
2022-08-27T00:11:45.149Z,99.90
2022-08-27T00:14:49.933Z,99.90
2022-08-27T00:17:53.550Z,99.90
2022-08-27T00:20:56.883Z,99.90
2022-08-27T00:24:00.310Z,99.90
2022-08-27T00:27:04.544Z,99.90
2022-08-27T00:30:13.734Z,99.90
2022-08-27T00:33:17.084Z,99.90
2022-08-27T00:36:20.521Z,99.90
2022-08-27T00:39:23.840Z,99.90
2022-08-27T00:42:27.135Z,99.90
2022-08-27T00:45:41.463Z,99.90
2022-08-27T00:48:44.852Z,99.90
2022-08-27T00:51:54.962Z,99.90
2022-08-27T00:55:03.749Z,99.90
2022-08-27T00:58:14.885Z,99.90
2022-08-27T01:01:22.072Z,99.90
2022-08-27T01:04:25.560Z,99.90
2022-08-27T01:07:31.482Z,99.90
2022-08-27T01:10:35.748Z,99.90
2022-08-27T01:13:54.446Z,99.90
2022-08-27T01:17:07.418Z,99.90
2022-08-27T01:20:16.499Z,99.90
2022-08-27T01:23:25.771Z,99.90
2022-08-27T01:26:31.761Z,99.90
2022-08-27T01:29:35.657Z,99.90
2022-08-27T01:32:39.962Z,99.90
2022-08-27T01:35:44.115Z,99.90
2022-08-27T01:38:47.673Z,99.90
2022-08-27T01:44:59.224Z,99.90
2022-08-27T01:51:07.370Z,99.90
2022-08-27T01:54:10.937Z,99.90
2022-08-27T01:57:16.545Z,99.90
2022-08-27T02:00:23.554Z,99.90
2022-08-27T02:03:27.563Z,99.90
2022-08-27T02:06:30.950Z,99.90
2022-08-27T02:09:34.359Z,99.90
2022-08-27T02:12:39.192Z,99.90
2022-08-27T02:15:43.347Z,99.90
2022-08-27T02:18:47.321Z,99.90
2022-08-27T02:21:51.225Z,99.90
2022-08-27T02:24:54.657Z,99.90
2022-08-27T02:28:00.723Z,99.90
2022-08-27T02:31:04.831Z,99.90
2022-08-27T02:34:10.789Z,99.90
2022-08-27T02:37:14.531Z,99.90
2022-08-27T02:40:20.545Z,99.90
2022-08-27T02:43:25.728Z,99.90
2022-08-27T02:46:31.675Z,99.90
2022-08-27T02:49:35.231Z,99.90
2022-08-27T02:52:38.870Z,99.90
2022-08-27T02:55:42.180Z,99.90
2022-08-27T02:58:47.034Z,99.90
2022-08-27T03:01:52.746Z,99.90
2022-08-27T03:04:56.100Z,99.90
2022-08-27T03:07:59.864Z,99.90
2022-08-27T03:11:03.220Z,99.90
2022-08-27T03:17:29.229Z,99.90
2022-08-27T03:20:33.280Z,99.90
2022-08-27T03:23:36.757Z,99.90
2022-08-27T03:26:40.559Z,99.90
2022-08-27T03:32:48.929Z,99.90
2022-08-27T03:35:52.321Z,99.90
2022-08-27T03:38:55.663Z,99.90
2022-08-27T03:41:59.271Z,99.90
2022-08-27T03:45:04.947Z,99.90
2022-08-27T03:48:08.273Z,99.90
2022-08-27T03:51:15.180Z,99.90
2022-08-27T03:54:18.543Z,99.90
2022-08-27T03:57:21.885Z,99.90
2022-08-27T04:00:27.310Z,99.90
2022-08-27T04:03:31.731Z,99.90
2022-08-27T04:06:36.013Z,99.90
2022-08-27T04:09:39.332Z,99.90
2022-08-27T04:12:43.289Z,99.90
2022-08-27T04:15:50.046Z,99.90
2022-08-27T04:18:53.368Z,99.90
2022-08-27T04:22:01.724Z,99.90
2022-08-27T04:25:05.443Z,99.90
2022-08-27T04:28:14.769Z,99.90
2022-08-27T04:31:20.153Z,99.90
2022-08-27T04:34:23.581Z,99.90
2022-08-27T04:37:31.050Z,99.90
2022-08-27T04:40:51.795Z,99.90
2022-08-27T04:43:58.171Z,99.90
2022-08-27T04:47:05.482Z,99.90
2022-08-27T04:50:09.310Z,99.90
2022-08-27T04:53:13.554Z,99.90
2022-08-27T04:56:19.305Z,99.90
2022-08-27T04:59:22.859Z,99.90
2022-08-27T05:02:27.519Z,99.90
2022-08-27T05:05:30.882Z,99.90
2022-08-27T05:08:35.065Z,99.90
2022-08-27T05:11:38.977Z,99.90
2022-08-27T05:14:42.357Z,99.90
2022-08-27T05:17:47.410Z,99.90
2022-08-27T05:20:51.054Z,99.90
2022-08-27T05:23:56.583Z,99.90
2022-08-27T05:26:59.874Z,99.90
2022-08-27T05:30:03.472Z,99.90
2022-08-27T05:33:08.899Z,99.90
2022-08-27T05:36:18.339Z,99.90
2022-08-27T05:39:21.724Z,99.90
2022-08-27T05:42:25.160Z,99.90
2022-08-27T05:45:29.116Z,99.90
2022-08-27T05:48:36.023Z,99.90
2022-08-27T05:51:39.289Z,99.90
2022-08-27T05:54:42.691Z,99.90
2022-08-27T05:57:45.967Z,99.90
2022-08-27T06:01:09.568Z,99.90
2022-08-27T06:04:18.036Z,99.90
2022-08-27T06:07:21.861Z,99.90
2022-08-27T06:10:25.160Z,99.90
2022-08-27T06:13:28.517Z,99.90
2022-08-27T06:16:31.909Z,99.90
2022-08-27T06:22:40.447Z,99.90
2022-08-27T06:25:43.867Z,99.90
2022-08-27T06:28:48.080Z,99.90
2022-08-27T06:31:52.658Z,99.90
2022-08-27T06:34:57.665Z,99.90
2022-08-27T06:38:01.040Z,99.90
2022-08-27T06:41:05.777Z,99.90
2022-08-27T06:44:20.379Z,99.90
2022-08-27T06:47:23.874Z,99.90
2022-08-27T06:50:28.740Z,99.90
2022-08-27T06:53:32.325Z,99.90
2022-08-27T06:56:36.675Z,99.90
2022-08-27T06:59:40.127Z,99.90
2022-08-27T07:02:44.870Z,99.90
2022-08-27T07:05:49.730Z,99.90
2022-08-27T07:08:53.483Z,99.90
2022-08-27T07:11:57.454Z,99.90
2022-08-27T07:15:01.128Z,99.90
2022-08-27T07:18:04.885Z,99.90
2022-08-27T07:21:10.855Z,99.90
2022-08-27T07:24:15.017Z,99.90
2022-08-27T07:27:18.435Z,99.90
2022-08-27T07:30:21.832Z,99.90
2022-08-27T07:33:25.318Z,99.90
2022-08-27T07:36:30.536Z,99.90
2022-08-27T07:39:33.945Z,99.90
2022-08-27T07:42:54.646Z,99.90
2022-08-27T07:45:58.522Z,99.90
2022-08-27T07:49:02.175Z,99.90
2022-08-27T07:52:07.134Z,99.90
2022-08-27T07:55:11.659Z,93.40
2022-08-27T07:58:18.490Z,94.80
2022-08-27T08:01:24.086Z,89.30
2022-08-27T08:04:27.694Z,90.10
2022-08-27T08:07:32.614Z,91.20
2022-08-27T08:10:37.425Z,70.60
2022-08-27T08:13:41.166Z,72.20
2022-08-27T08:16:44.570Z,56.00
2022-08-27T08:20:08.493Z,40.80
2022-08-27T08:26:18.479Z,35.40
2022-08-27T08:29:22.207Z,27.70
2022-08-27T08:32:25.674Z,2.00
2022-08-27T08:35:34.945Z,1.00
2022-08-27T08:38:48.438Z,1.00
2022-08-27T08:41:55.038Z,1.00
2022-08-27T08:45:00.530Z,1.00
2022-08-27T08:48:07.806Z,1.00
2022-08-27T08:51:17.562Z,1.00
2022-08-27T08:54:24.307Z,1.00
2022-08-27T08:57:32.185Z,1.00
2022-08-27T09:00:36.810Z,1.00
2022-08-27T09:03:43.829Z,1.00
2022-08-27T09:06:53.484Z,1.00
2022-08-27T09:10:03.412Z,1.00
2022-08-27T09:13:07.432Z,1.00
2022-08-27T09:16:11.604Z,1.00
2022-08-27T09:19:15.426Z,1.00
2022-08-27T09:22:25.065Z,1.00
2022-08-27T09:25:33.568Z,1.00
2022-08-27T09:29:00.064Z,1.00
2022-08-27T09:32:08.470Z,1.00
2022-08-27T09:35:16.048Z,1.00
2022-08-27T09:38:28.117Z,1.00
2022-08-27T09:41:41.577Z,1.00
2022-08-27T09:44:53.401Z,1.00
2022-08-27T09:48:04.855Z,1.00
2022-08-27T09:51:11.120Z,1.00
2022-08-27T09:54:29.007Z,1.00
2022-08-27T09:57:37.319Z,1.00
2022-08-27T10:00:42.540Z,1.00
2022-08-27T10:03:46.996Z,1.00
2022-08-27T10:07:20.716Z,1.00
2022-08-27T10:10:31.534Z,1.00
2022-08-27T10:13:45.362Z,1.00
2022-08-27T10:17:00.386Z,1.00
2022-08-27T10:20:10.993Z,1.00
2022-08-27T10:23:23.723Z,1.00
2022-08-27T10:26:33.898Z,1.00
2022-08-27T10:29:43.770Z,1.00
2022-08-27T10:32:52.769Z,1.00
2022-08-27T10:36:03.058Z,1.00
2022-08-27T10:39:20.990Z,1.00
2022-08-27T10:42:30.386Z,1.00
2022-08-27T10:45:45.630Z,1.00
2022-08-27T10:48:59.007Z,1.00
2022-08-27T10:52:08.647Z,1.00
2022-08-27T10:55:15.443Z,1.00
2022-08-27T10:58:31.797Z,1.00
2022-08-27T11:01:45.803Z,1.00
2022-08-27T11:04:52.913Z,1.00
2022-08-27T11:08:03.643Z,1.00
2022-08-27T11:11:57.149Z,1.00
2022-08-27T11:14:37.597Z,1.00
2022-08-27T11:17:47.085Z,1.00
2022-08-27T11:20:58.232Z,1.00
2022-08-27T11:24:11.565Z,1.00
2022-08-27T11:27:18.056Z,1.00
2022-08-27T11:30:28.185Z,1.00
2022-08-27T11:33:45.482Z,1.00
2022-08-27T11:37:25.173Z,1.00
2022-08-27T11:40:39.518Z,1.00
2022-08-27T11:43:45.019Z,1.00
2022-08-27T11:46:52.074Z,1.00
2022-08-27T11:49:59.656Z,1.00
2022-08-27T11:53:06.248Z,1.00
2022-08-27T11:56:16.341Z,1.00
2022-08-27T11:59:28.460Z,1.00
2022-08-27T12:02:31.962Z,1.00
2022-08-27T12:05:40.873Z,1.00
2022-08-27T12:08:44.532Z,1.00
2022-08-27T12:11:59.983Z,1.00
2022-08-27T12:15:09.775Z,1.00
2022-08-27T12:18:51.847Z,1.00
2022-08-27T12:22:18.682Z,1.00
2022-08-27T12:25:23.818Z,1.00
2022-08-27T12:28:28.575Z,1.00
2022-08-27T12:31:32.796Z,1.00
2022-08-27T12:34:45.269Z,1.00
2022-08-27T12:37:54.002Z,1.00
2022-08-27T12:41:05.309Z,1.00
2022-08-27T12:44:10.785Z,1.00
2022-08-27T12:47:17.093Z,1.00
2022-08-27T12:50:27.069Z,1.00
2022-08-27T12:53:43.531Z,1.00
2022-08-27T12:56:58.017Z,1.00
2022-08-27T13:00:12.436Z,1.00
2022-08-27T13:03:24.138Z,1.00
2022-08-27T13:06:32.404Z,1.00
2022-08-27T13:09:39.459Z,1.00
2022-08-27T13:12:44.298Z,1.00
2022-08-27T13:15:50.265Z,1.00
2022-08-27T13:18:54.360Z,1.00
2022-08-27T13:21:58.866Z,1.00
2022-08-27T13:25:04.060Z,1.00
2022-08-27T13:28:12.821Z,1.00
2022-08-27T13:31:18.023Z,1.00
2022-08-27T13:34:25.710Z,1.00
2022-08-27T13:37:34.569Z,1.00
2022-08-27T13:40:54.545Z,1.00
2022-08-27T13:43:59.763Z,1.00
2022-08-27T13:47:05.938Z,1.00
2022-08-27T13:50:15.557Z,1.00
2022-08-27T13:53:42.459Z,1.00
2022-08-27T13:57:09.573Z,1.00
2022-08-27T14:00:18.366Z,1.00
2022-08-27T14:03:31.433Z,1.00
2022-08-27T14:06:41.205Z,1.00
2022-08-27T14:09:54.206Z,1.00
2022-08-27T14:13:02.037Z,1.00
2022-08-27T14:16:16.156Z,1.00
2022-08-27T14:19:28.161Z,1.00
2022-08-27T14:22:31.713Z,1.00
2022-08-27T14:25:35.859Z,1.00
2022-08-27T14:28:40.725Z,1.00
2022-08-27T14:31:44.504Z,1.00
2022-08-27T14:34:48.396Z,1.00
2022-08-27T14:37:52.233Z,1.00
2022-08-27T14:40:58.907Z,1.00
2022-08-27T14:44:04.177Z,1.00
2022-08-27T14:47:10.852Z,1.00
2022-08-27T14:50:15.143Z,1.00
2022-08-27T14:53:19.872Z,1.00
2022-08-27T14:56:25.207Z,1.00
2022-08-27T15:05:47.060Z,1.00
2022-08-27T15:08:52.569Z,1.00
2022-08-27T15:11:57.215Z,1.00
2022-08-27T15:15:01.987Z,1.00
2022-08-27T15:18:05.550Z,1.00
2022-08-27T15:21:09.029Z,1.00
2022-08-27T15:24:18.233Z,1.00
2022-08-27T15:27:22.210Z,1.00
2022-08-27T15:30:30.229Z,1.00
2022-08-27T15:33:33.730Z,1.00
2022-08-27T15:39:41.332Z,1.00
2022-08-27T15:42:45.165Z,1.00
2022-08-27T15:45:49.917Z,1.00
2022-08-27T15:48:53.780Z,1.00
2022-08-27T15:51:59.639Z,1.00
2022-08-27T15:55:04.168Z,1.00
2022-08-27T15:58:08.844Z,1.00
2022-08-27T16:01:17.249Z,1.00
2022-08-27T16:04:21.313Z,1.00
2022-08-27T16:07:25.008Z,1.00
2022-08-27T16:10:28.837Z,1.00
2022-08-27T16:13:32.766Z,1.00
2022-08-27T16:19:42.008Z,1.00
2022-08-27T16:22:46.220Z,1.00
2022-08-27T16:25:49.648Z,1.00
2022-08-27T16:32:01.151Z,1.00
2022-08-27T16:35:05.720Z,1.00
2022-08-27T16:38:09.816Z,1.00
2022-08-27T16:41:14.122Z,1.00
2022-08-27T16:44:18.065Z,1.00
2022-08-27T16:47:23.227Z,1.00
2022-08-27T16:50:43.788Z,1.00
2022-08-27T16:53:50.971Z,1.00
2022-08-27T16:56:54.566Z,1.00
2022-08-27T16:59:58.268Z,1.00
2022-08-27T17:06:09.995Z,1.00
2022-08-27T17:09:14.515Z,1.00
2022-08-27T17:12:22.193Z,1.00
2022-08-27T17:15:26.257Z,1.00
2022-08-27T17:18:34.089Z,1.00
2022-08-27T17:21:38.292Z,1.00
2022-08-27T17:24:42.546Z,1.00
2022-08-27T17:30:51.127Z,1.00
2022-08-27T17:33:59.177Z,1.00
2022-08-27T17:37:03.037Z,1.00
2022-08-27T17:40:08.218Z,1.00
2022-08-27T17:43:11.813Z,1.00
2022-08-27T17:46:17.218Z,1.00
2022-08-27T17:49:25.596Z,1.20
2022-08-27T17:55:34.374Z,49.20
2022-08-27T17:58:38.042Z,71.30
2022-08-27T18:01:41.958Z,81.70
2022-08-27T18:07:51.648Z,83.30
2022-08-27T18:14:04.730Z,85.50
2022-08-27T18:20:16.526Z,94.90
2022-08-27T18:23:19.941Z,94.90
2022-08-27T18:26:27.059Z,95.90
2022-08-27T18:29:30.929Z,99.90
2022-08-27T18:35:41.067Z,99.90
2022-08-27T18:41:50.866Z,99.90
2022-08-27T18:48:00.571Z,99.90
2022-08-27T18:51:09.131Z,99.90
2022-08-27T18:57:16.648Z,99.90
2022-08-27T19:00:20.758Z,99.90
2022-08-27T19:03:27.536Z,99.90
2022-08-27T19:06:32.927Z,99.90
2022-08-27T19:09:36.398Z,99.90
2022-08-27T19:12:39.679Z,99.90
2022-08-27T19:15:46.249Z,99.90
2022-08-27T19:18:50.237Z,99.90
2022-08-27T19:24:59.047Z,99.90
2022-08-27T19:28:02.445Z,99.90
2022-08-27T19:31:06.796Z,99.90
2022-08-27T19:34:10.669Z,99.90
2022-08-27T19:37:21.499Z,99.90
2022-08-27T19:40:26.077Z,99.90
2022-08-27T19:43:29.688Z,99.90
2022-08-27T19:52:44.934Z,99.90
2022-08-27T19:55:48.474Z,99.90
2022-08-27T19:58:56.690Z,99.90
2022-08-27T20:02:02.526Z,99.90
2022-08-27T20:05:17.869Z,99.90
2022-08-27T20:08:23.398Z,99.90
2022-08-27T20:11:27.225Z,99.90
2022-08-27T20:14:30.554Z,99.90
2022-08-27T20:17:34.816Z,99.90
2022-08-27T20:20:38.929Z,99.90
2022-08-27T20:26:47.432Z,99.90
2022-08-27T20:29:50.851Z,99.90
2022-08-27T20:32:54.173Z,99.90
2022-08-27T20:35:59.770Z,99.90
2022-08-27T20:39:07.552Z,99.90
2022-08-27T20:42:11.612Z,99.90
2022-08-27T20:45:15.762Z,99.90
2022-08-27T20:48:19.569Z,99.90
2022-08-27T20:51:23.261Z,99.90
2022-08-27T20:57:31.881Z,99.90
2022-08-27T21:00:36.682Z,99.90
2022-08-27T21:03:40.177Z,99.90
2022-08-27T21:06:43.592Z,99.90
2022-08-27T21:09:56.130Z,99.90
2022-08-27T21:13:03.369Z,99.90
2022-08-27T21:16:08.826Z,99.90
2022-08-27T21:19:12.444Z,99.90
2022-08-27T21:22:15.949Z,99.90
2022-08-27T21:25:25.237Z,99.90
2022-08-27T21:28:28.912Z,99.90
2022-08-27T21:31:32.365Z,99.90
2022-08-27T21:34:35.835Z,99.90
2022-08-27T21:37:39.250Z,99.90
2022-08-27T21:43:47.951Z,99.90
2022-08-27T21:46:51.321Z,99.90
2022-08-27T21:49:54.690Z,99.90
2022-08-27T21:52:58.015Z,99.90
2022-08-27T21:56:02.648Z,99.90
2022-08-27T21:59:06.067Z,99.90
2022-08-27T22:02:28.897Z,99.90
2022-08-27T22:05:32.990Z,99.90
2022-08-27T22:08:36.490Z,99.90
2022-08-27T22:11:41.660Z,99.90
2022-08-27T22:14:47.982Z,99.90
2022-08-27T22:17:51.547Z,99.90
2022-08-27T22:20:54.985Z,99.90
2022-08-27T22:23:58.357Z,99.90
2022-08-27T22:30:11.133Z,99.90
2022-08-27T22:36:18.672Z,99.90
2022-08-27T22:39:21.984Z,99.90
2022-08-27T22:45:32.454Z,99.90
2022-08-27T22:48:35.843Z,99.90
2022-08-27T22:54:42.823Z,99.90
2022-08-27T22:57:47.742Z,99.90
2022-08-27T23:00:52.702Z,99.90
2022-08-27T23:03:56.738Z,99.90
2022-08-27T23:07:01.041Z,99.90
2022-08-27T23:10:05.621Z,99.90
2022-08-27T23:16:15.598Z,99.90
2022-08-27T23:19:18.954Z,99.90
2022-08-27T23:22:22.378Z,99.90
2022-08-27T23:25:45.091Z,99.90
2022-08-27T23:28:49.796Z,99.90
2022-08-27T23:31:54.018Z,99.90
2022-08-27T23:34:57.549Z,99.90
2022-08-27T23:38:00.852Z,99.90
2022-08-27T23:47:12.878Z,99.90
2022-08-27T23:50:16.476Z,99.90
2022-08-27T23:53:19.842Z,99.90
2022-08-27T23:56:29.911Z,99.90
2022-08-27T23:59:35.235Z,99.90
